Orange8 — JL6278 — position and weather

sailwx.info

Track history (hours):
 
Tides and Currents Weather Stations Pressure Air Temp Water Temp Dewpoint Dewpoint Depression Visibility Wind Speed Wind Dir Waves Ship Positions

Orange8

Last reported at 2017-Sep-21 02:58 UTC. Time now 2017-Sep-21 03:17 UTC.
Position N 34°37' E 135°26'.

Length 164 m; draft 5 m.

Type: Passenger vessel. MMSI: 431501603.

Date/timePositionNaut miles runAvg speedWind from/ knotsBaromVisibWave heightAir tempDewpointWater temp
2017-Sep-21 02:58N 34°37' E 135°26'0 0.0
2017-Sep-21 02:28N 34°37' E 135°26'0 0.0
2017-Sep-21 01:58N 34°37' E 135°26'0 0.0
2017-Sep-21 01:28N 34°37' E 135°26'0 0.0
2017-Sep-21 00:58N 34°37' E 135°26'0 0.0
2017-Sep-21 00:28N 34°37' E 135°26'0 0.0
2017-Sep-20 23:58N 34°37' E 135°26'0 0.0
2017-Sep-20 23:28N 34°37' E 135°26'0 0.0
2017-Sep-20 22:58N 34°37' E 135°26'0 0.0
2017-Sep-20 22:28N 34°37' E 135°26'0 0.0
2017-Sep-20 21:58N 34°37' E 135°26'0 0.0
2017-Sep-20 21:28N 34°37' E 135°26'0 0.2
2017-Sep-20 21:00N 34°37' E 135°26'612.9
2017-Sep-20 20:30N 34°36' E 135°18'918.4
2017-Sep-20 20:00N 34°34' E 135°07'917.3
2017-Sep-20 19:30N 34°36' E 134°57'6 0.2
2017-Sep-19 14:53N 34°34' E 134°50'719.3
2017-Sep-19 14:30N 34°37' E 134°58'918.2
2017-Sep-19 14:00N 34°36' E 135°09'1019.2
2017-Sep-19 13:30N 34°37' E 135°20'5 9.1
2017-Sep-19 13:00N 34°37' E 135°26'0 0.0
2017-Sep-19 12:29N 34°37' E 135°26'0 0.0
2017-Sep-19 11:59N 34°37' E 135°26'0 0.0
2017-Sep-19 11:29N 34°37' E 135°26'0 0.0
2017-Sep-19 10:59N 34°37' E 135°26'0 0.0
2017-Sep-19 10:23N 34°37' E 135°26'0 0.0
2017-Sep-19 09:59N 34°37' E 135°26'0 0.0
2017-Sep-19 09:29N 34°37' E 135°26'0 0.0
2017-Sep-19 08:53N 34°37' E 135°26'0 0.0
2017-Sep-19 08:29N 34°37' E 135°26'0 0.0
2017-Sep-19 07:59N 34°37' E 135°26'0 0.0
2017-Sep-19 07:29N 34°37' E 135°26'0 0.0
2017-Sep-19 06:59N 34°37' E 135°26'0 0.0
2017-Sep-19 06:29N 34°37' E 135°26'0 0.0
2017-Sep-19 05:53N 34°37' E 135°26'0 0.0
2017-Sep-19 05:23N 34°37' E 135°26'0 0.0
2017-Sep-19 04:59N 34°37' E 135°26'0 0.0
2017-Sep-19 04:29N 34°37' E 135°26'0 0.0
2017-Sep-19 03:59N 34°37' E 135°26'0 0.0
2017-Sep-19 03:29N 34°37' E 135°26'0 0.0
2017-Sep-19 02:59N 34°37' E 135°26'0 0.0
2017-Sep-19 02:29N 34°37' E 135°26'0 0.0
2017-Sep-19 01:47N 34°37' E 135°26'0 0.0
2017-Sep-19 01:29N 34°37' E 135°26'0 0.0
2017-Sep-19 00:59N 34°37' E 135°26'0 0.0
2017-Sep-19 00:29N 34°37' E 135°26'0 0.0
2017-Sep-18 23:59N 34°37' E 135°26'0 0.0
2017-Sep-18 23:23N 34°37' E 135°26'0 0.0
2017-Sep-18 22:53N 34°37' E 135°26'0 0.0
2017-Sep-18 22:23N 34°37' E 135°26'0 0.0
2017-Sep-18 21:59N 34°37' E 135°26'0 0.0
2017-Sep-18 21:29N 34°37' E 135°26'0 0.2
2017-Sep-18 21:01N 34°37' E 135°26'714.4
2017-Sep-18 20:30N 34°35' E 135°17'1020.6
2017-Sep-18 20:00N 34°35' E 135°05'816.8
2017-Sep-18 19:30N 34°36' E 134°55'2 0.0
2017-Sep-17 01:57N 34°35' E 134°53'817.5
2017-Sep-17 01:30N 34°37' E 135°02'1019.1
2017-Sep-17 01:00N 34°36' E 135°13'917.9
2017-Sep-17 00:30N 34°38' E 135°24'2 2.5
2017-Sep-16 23:52N 34°37' E 135°26'0 0.0
2017-Sep-16 23:22N 34°37' E 135°26'0 0.0
2017-Sep-16 22:52N 34°37' E 135°26'0 0.0
2017-Sep-16 22:28N 34°37' E 135°26'0 0.0
2017-Sep-16 21:58N 34°37' E 135°26'0 0.0
2017-Sep-16 21:28N 34°37' E 135°26'1 2.0
2017-Sep-16 21:00N 34°37' E 135°25'816.4
2017-Sep-16 20:30N 34°35' E 135°15'1019.3
2017-Sep-16 20:00N 34°35' E 135°04'816.3
2017-Sep-16 19:30N 34°35' E 134°54'1 0.0
2017-Sep-15 14:53N 34°35' E 134°53'717.5
2017-Sep-15 14:30N 34°38' E 135°00'917.6
2017-Sep-15 14:00N 34°36' E 135°11'918.8
2017-Sep-15 13:30N 34°38' E 135°22'3 5.4
2017-Sep-15 12:55N 34°37' E 135°26'0 0.0
2017-Sep-15 12:25N 34°37' E 135°26'0 0.0
2017-Sep-15 11:55N 34°37' E 135°26'0 0.0
2017-Sep-15 11:25N 34°37' E 135°26'0 0.0
2017-Sep-15 10:49N 34°37' E 135°26'0 0.0
2017-Sep-15 10:25N 34°37' E 135°26'0 0.0
2017-Sep-15 09:37N 34°37' E 135°26'0 0.0
2017-Sep-15 09:13N 34°37' E 135°26'0 0.0
2017-Sep-15 08:55N 34°37' E 135°26'0 0.0
2017-Sep-15 08:25N 34°37' E 135°26'0 0.1
2017-Sep-15 07:55N 34°37' E 135°26'0 0.0
2017-Sep-15 07:25N 34°37' E 135°26'0 0.0
2017-Sep-15 06:55N 34°37' E 135°26'0 0.0
2017-Sep-15 06:25N 34°37' E 135°26'0 0.0
2017-Sep-15 05:55N 34°37' E 135°26'0 0.0
2017-Sep-15 05:19N 34°37' E 135°26'0 0.0
2017-Sep-15 04:49N 34°37' E 135°26'0 0.0
2017-Sep-15 04:25N 34°37' E 135°26'0 0.0
2017-Sep-15 03:55N 34°37' E 135°26'0 0.0
2017-Sep-15 03:25N 34°37' E 135°26'0 0.0
2017-Sep-15 02:55N 34°37' E 135°26'0 0.0
2017-Sep-15 02:25N 34°37' E 135°26'0 0.0
2017-Sep-15 01:49N 34°37' E 135°26'0 0.0
2017-Sep-15 01:13N 34°37' E 135°26'0 0.0
2017-Sep-15 00:55N 34°37' E 135°26'0 0.0
2017-Sep-15 00:07N 34°37' E 135°26'0 0.0
2017-Sep-14 23:49N 34°37' E 135°26'0 0.1
2017-Sep-14 23:25N 34°37' E 135°26'0 0.0
2017-Sep-14 22:55N 34°37' E 135°26'0 0.0
2017-Sep-14 22:25N 34°37' E 135°26'0 0.0
2017-Sep-14 21:49N 34°37' E 135°26'0 0.0
2017-Sep-14 21:25N 34°37' E 135°26'0 0.1
2017-Sep-14 21:01N 34°37' E 135°26'713.6
2017-Sep-14 20:30N 34°36' E 135°18'1019.4
2017-Sep-14 20:00N 34°35' E 135°06'817.1
2017-Sep-14 19:30N 34°35' E 134°56'4 0.1
2017-Sep-13 14:51N 34°35' E 134°51'719.3
2017-Sep-13 14:30N 34°37' E 134°59'917.3
2017-Sep-13 14:00N 34°36' E 135°09'918.6
2017-Sep-13 13:30N 34°37' E 135°20'5 9.6
2017-Sep-13 13:00N 34°37' E 135°26'0 0.0
2017-Sep-13 12:26N 34°37' E 135°26'0 0.0
2017-Sep-13 11:50N 34°37' E 135°26'0 0.0
2017-Sep-13 10:33N 34°37' E 135°26'0 0.0
2017-Sep-13 10:26N 34°37' E 135°26'0 0.0
2017-Sep-13 09:50N 34°37' E 135°26'0 0.0
2017-Sep-13 09:27N 34°37' E 135°26'0 0.0
2017-Sep-13 08:56N 34°37' E 135°26'0 0.0
2017-Sep-13 08:20N 34°37' E 135°26'0 0.0
2017-Sep-13 07:56N 34°37' E 135°26'0 0.0
2017-Sep-13 07:26N 34°37' E 135°26'0 0.0
2017-Sep-13 06:50N 34°37' E 135°26'0 0.0
2017-Sep-13 06:26N 34°37' E 135°26'0 0.0
2017-Sep-13 05:50N 34°37' E 135°26'0 0.0
2017-Sep-13 05:27N 34°37' E 135°26'0 0.0
2017-Sep-13 04:56N 34°37' E 135°26'0 0.0
2017-Sep-13 04:09N 34°37' E 135°26'0 0.0
2017-Sep-13 03:51N 34°37' E 135°26'0 0.0
2017-Sep-13 03:26N 34°37' E 135°26'0 0.0
2017-Sep-13 02:57N 34°37' E 135°26'0 0.0
2017-Sep-13 02:14N 34°37' E 135°26'0 0.0
2017-Sep-13 01:57N 34°37' E 135°26'0 0.0
2017-Sep-13 01:26N 34°37' E 135°26'0 0.0
2017-Sep-13 00:45N 34°37' E 135°26'0 0.0
2017-Sep-13 00:08N 34°37' E 135°26'0 0.0
2017-Sep-12 23:51N 34°37' E 135°26'0 0.0
2017-Sep-12 23:27N 34°37' E 135°26'0 0.0
2017-Sep-12 22:56N 34°37' E 135°26'0 0.0
2017-Sep-12 22:26N 34°37' E 135°26'0 0.0
2017-Sep-12 21:57N 34°37' E 135°26'0 0.0
2017-Sep-12 21:20N 34°37' E 135°26'0 0.3
2017-Sep-12 21:00N 34°37' E 135°26'611.8
2017-Sep-12 20:30N 34°35' E 135°19'1019.3
2017-Sep-12 20:00N 34°34' E 135°07'918.8
2017-Sep-12 19:30N 34°36' E 134°56'4 0.1
2017-Sep-11 14:50N 34°35' E 134°52'620.0
2017-Sep-11 14:30N 34°38' E 134°59'918.5
2017-Sep-11 14:00N 34°36' E 135°10'918.0
2017-Sep-11 13:30N 34°37' E 135°21'4 8.2
2017-Sep-11 13:00N 34°37' E 135°26'0 0.0
2017-Sep-11 12:28N 34°37' E 135°26'0 0.0
2017-Sep-11 11:52N 34°37' E 135°26'0 0.0
2017-Sep-11 11:22N 34°37' E 135°26'0 0.0
2017-Sep-11 10:58N 34°37' E 135°26'0 0.0
2017-Sep-11 10:28N 34°37' E 135°26'0 0.0
2017-Sep-11 09:52N 34°37' E 135°26'0 0.0
2017-Sep-11 09:28N 34°37' E 135°26'0 0.0
2017-Sep-11 08:52N 34°37' E 135°26'0 0.0
2017-Sep-11 08:28N 34°37' E 135°26'0 0.0
2017-Sep-11 07:58N 34°37' E 135°26'0 0.0
2017-Sep-11 07:04N 34°37' E 135°26'0 0.1
2017-Sep-11 06:58N 34°37' E 135°26'0 0.0
2017-Sep-11 06:28N 34°37' E 135°26'0 0.0
2017-Sep-11 05:58N 34°37' E 135°26'0 0.0
2017-Sep-11 05:28N 34°37' E 135°26'0 0.0
2017-Sep-11 04:52N 34°37' E 135°26'0 0.0
2017-Sep-11 04:22N 34°37' E 135°26'0 0.0
2017-Sep-11 03:46N 34°37' E 135°26'0 0.0
2017-Sep-11 03:28N 34°37' E 135°26'0 0.0
2017-Sep-11 02:58N 34°37' E 135°26'  
Track history (hours):
 
Tides and Currents Weather Stations Pressure Air Temp Water Temp Dewpoint Dewpoint Depression Visibility Wind Speed Wind Dir Waves Ship Positions

Orange8

Last reported at 2017-Sep-21 02:58 UTC. Time now 2017-Sep-21 03:17 UTC.
Position N 34°37' E 135°26'.

Length 164 m; draft 5 m.

Type: Passenger vessel. MMSI: 431501603.

Date/timePositionNaut miles runAvg speedWind from/ knotsBaromVisibWave heightAir tempDewpointWater temp
2017-Sep-21 02:58N 34°37' E 135°26'0 0.0
2017-Sep-21 02:28N 34°37' E 135°26'0 0.0
2017-Sep-21 01:58N 34°37' E 135°26'0 0.0
2017-Sep-21 01:28N 34°37' E 135°26'0 0.0
2017-Sep-21 00:58N 34°37' E 135°26'0 0.0
2017-Sep-21 00:28N 34°37' E 135°26'0 0.0
2017-Sep-20 23:58N 34°37' E 135°26'0 0.0
2017-Sep-20 23:28N 34°37' E 135°26'0 0.0
2017-Sep-20 22:58N 34°37' E 135°26'0 0.0
2017-Sep-20 22:28N 34°37' E 135°26'0 0.0
2017-Sep-20 21:58N 34°37' E 135°26'0 0.0
2017-Sep-20 21:28N 34°37' E 135°26'0 0.2
2017-Sep-20 21:00N 34°37' E 135°26'612.9
2017-Sep-20 20:30N 34°36' E 135°18'918.4
2017-Sep-20 20:00N 34°34' E 135°07'917.3
2017-Sep-20 19:30N 34°36' E 134°57'6 0.2
2017-Sep-19 14:53N 34°34' E 134°50'719.3
2017-Sep-19 14:30N 34°37' E 134°58'918.2
2017-Sep-19 14:00N 34°36' E 135°09'1019.2
2017-Sep-19 13:30N 34°37' E 135°20'5 9.1
2017-Sep-19 13:00N 34°37' E 135°26'0 0.0
2017-Sep-19 12:29N 34°37' E 135°26'0 0.0
2017-Sep-19 11:59N 34°37' E 135°26'0 0.0
2017-Sep-19 11:29N 34°37' E 135°26'0 0.0
2017-Sep-19 10:59N 34°37' E 135°26'0 0.0
2017-Sep-19 10:23N 34°37' E 135°26'0 0.0
2017-Sep-19 09:59N 34°37' E 135°26'0 0.0
2017-Sep-19 09:29N 34°37' E 135°26'0 0.0
2017-Sep-19 08:53N 34°37' E 135°26'0 0.0
2017-Sep-19 08:29N 34°37' E 135°26'0 0.0
2017-Sep-19 07:59N 34°37' E 135°26'0 0.0
2017-Sep-19 07:29N 34°37' E 135°26'0 0.0
2017-Sep-19 06:59N 34°37' E 135°26'0 0.0
2017-Sep-19 06:29N 34°37' E 135°26'0 0.0
2017-Sep-19 05:53N 34°37' E 135°26'0 0.0
2017-Sep-19 05:23N 34°37' E 135°26'0 0.0
2017-Sep-19 04:59N 34°37' E 135°26'0 0.0
2017-Sep-19 04:29N 34°37' E 135°26'0 0.0
2017-Sep-19 03:59N 34°37' E 135°26'0 0.0
2017-Sep-19 03:29N 34°37' E 135°26'0 0.0
2017-Sep-19 02:59N 34°37' E 135°26'0 0.0
2017-Sep-19 02:29N 34°37' E 135°26'0 0.0
2017-Sep-19 01:47N 34°37' E 135°26'0 0.0
2017-Sep-19 01:29N 34°37' E 135°26'0 0.0
2017-Sep-19 00:59N 34°37' E 135°26'0 0.0
2017-Sep-19 00:29N 34°37' E 135°26'0 0.0
2017-Sep-18 23:59N 34°37' E 135°26'0 0.0
2017-Sep-18 23:23N 34°37' E 135°26'0 0.0
2017-Sep-18 22:53N 34°37' E 135°26'0 0.0
2017-Sep-18 22:23N 34°37' E 135°26'0 0.0
2017-Sep-18 21:59N 34°37' E 135°26'0 0.0
2017-Sep-18 21:29N 34°37' E 135°26'0 0.2
2017-Sep-18 21:01N 34°37' E 135°26'714.4
2017-Sep-18 20:30N 34°35' E 135°17'1020.6
2017-Sep-18 20:00N 34°35' E 135°05'816.8
2017-Sep-18 19:30N 34°36' E 134°55'2 0.0
2017-Sep-17 01:57N 34°35' E 134°53'817.5
2017-Sep-17 01:30N 34°37' E 135°02'1019.1
2017-Sep-17 01:00N 34°36' E 135°13'917.9
2017-Sep-17 00:30N 34°38' E 135°24'2 2.5
2017-Sep-16 23:52N 34°37' E 135°26'0 0.0
2017-Sep-16 23:22N 34°37' E 135°26'0 0.0
2017-Sep-16 22:52N 34°37' E 135°26'0 0.0
2017-Sep-16 22:28N 34°37' E 135°26'0 0.0
2017-Sep-16 21:58N 34°37' E 135°26'0 0.0
2017-Sep-16 21:28N 34°37' E 135°26'1 2.0
2017-Sep-16 21:00N 34°37' E 135°25'816.4
2017-Sep-16 20:30N 34°35' E 135°15'1019.3
2017-Sep-16 20:00N 34°35' E 135°04'816.3
2017-Sep-16 19:30N 34°35' E 134°54'1 0.0
2017-Sep-15 14:53N 34°35' E 134°53'717.5
2017-Sep-15 14:30N 34°38' E 135°00'917.6
2017-Sep-15 14:00N 34°36' E 135°11'918.8
2017-Sep-15 13:30N 34°38' E 135°22'3 5.4
2017-Sep-15 12:55N 34°37' E 135°26'0 0.0
2017-Sep-15 12:25N 34°37' E 135°26'0 0.0
2017-Sep-15 11:55N 34°37' E 135°26'0 0.0
2017-Sep-15 11:25N 34°37' E 135°26'0 0.0
2017-Sep-15 10:49N 34°37' E 135°26'0 0.0
2017-Sep-15 10:25N 34°37' E 135°26'0 0.0
2017-Sep-15 09:37N 34°37' E 135°26'0 0.0
2017-Sep-15 09:13N 34°37' E 135°26'0 0.0
2017-Sep-15 08:55N 34°37' E 135°26'0 0.0
2017-Sep-15 08:25N 34°37' E 135°26'0 0.1
2017-Sep-15 07:55N 34°37' E 135°26'0 0.0
2017-Sep-15 07:25N 34°37' E 135°26'0 0.0
2017-Sep-15 06:55N 34°37' E 135°26'0 0.0
2017-Sep-15 06:25N 34°37' E 135°26'0 0.0
2017-Sep-15 05:55N 34°37' E 135°26'0 0.0
2017-Sep-15 05:19N 34°37' E 135°26'0 0.0
2017-Sep-15 04:49N 34°37' E 135°26'0 0.0
2017-Sep-15 04:25N 34°37' E 135°26'0 0.0
2017-Sep-15 03:55N 34°37' E 135°26'0 0.0
2017-Sep-15 03:25N 34°37' E 135°26'0 0.0
2017-Sep-15 02:55N 34°37' E 135°26'0 0.0
2017-Sep-15 02:25N 34°37' E 135°26'0 0.0
2017-Sep-15 01:49N 34°37' E 135°26'0 0.0
2017-Sep-15 01:13N 34°37' E 135°26'0 0.0
2017-Sep-15 00:55N 34°37' E 135°26'0 0.0
2017-Sep-15 00:07N 34°37' E 135°26'0 0.0
2017-Sep-14 23:49N 34°37' E 135°26'0 0.1
2017-Sep-14 23:25N 34°37' E 135°26'0 0.0
2017-Sep-14 22:55N 34°37' E 135°26'0 0.0
2017-Sep-14 22:25N 34°37' E 135°26'0 0.0
2017-Sep-14 21:49N 34°37' E 135°26'0 0.0
2017-Sep-14 21:25N 34°37' E 135°26'0 0.1
2017-Sep-14 21:01N 34°37' E 135°26'713.6
2017-Sep-14 20:30N 34°36' E 135°18'1019.4
2017-Sep-14 20:00N 34°35' E 135°06'817.1
2017-Sep-14 19:30N 34°35' E 134°56'4 0.1
2017-Sep-13 14:51N 34°35' E 134°51'719.3
2017-Sep-13 14:30N 34°37' E 134°59'917.3
2017-Sep-13 14:00N 34°36' E 135°09'918.6
2017-Sep-13 13:30N 34°37' E 135°20'5 9.6
2017-Sep-13 13:00N 34°37' E 135°26'0 0.0
2017-Sep-13 12:26N 34°37' E 135°26'0 0.0
2017-Sep-13 11:50N 34°37' E 135°26'0 0.0
2017-Sep-13 10:33N 34°37' E 135°26'0 0.0
2017-Sep-13 10:26N 34°37' E 135°26'0 0.0
2017-Sep-13 09:50N 34°37' E 135°26'0 0.0
2017-Sep-13 09:27N 34°37' E 135°26'0 0.0
2017-Sep-13 08:56N 34°37' E 135°26'0 0.0
2017-Sep-13 08:20N 34°37' E 135°26'0 0.0
2017-Sep-13 07:56N 34°37' E 135°26'0 0.0
2017-Sep-13 07:26N 34°37' E 135°26'0 0.0
2017-Sep-13 06:50N 34°37' E 135°26'0 0.0
2017-Sep-13 06:26N 34°37' E 135°26'0 0.0
2017-Sep-13 05:50N 34°37' E 135°26'0 0.0
2017-Sep-13 05:27N 34°37' E 135°26'0 0.0
2017-Sep-13 04:56N 34°37' E 135°26'0 0.0
2017-Sep-13 04:09N 34°37' E 135°26'0 0.0
2017-Sep-13 03:51N 34°37' E 135°26'0 0.0
2017-Sep-13 03:26N 34°37' E 135°26'0 0.0
2017-Sep-13 02:57N 34°37' E 135°26'0 0.0
2017-Sep-13 02:14N 34°37' E 135°26'0 0.0
2017-Sep-13 01:57N 34°37' E 135°26'0 0.0
2017-Sep-13 01:26N 34°37' E 135°26'0 0.0
2017-Sep-13 00:45N 34°37' E 135°26'0 0.0
2017-Sep-13 00:08N 34°37' E 135°26'0 0.0
2017-Sep-12 23:51N 34°37' E 135°26'0 0.0
2017-Sep-12 23:27N 34°37' E 135°26'0 0.0
2017-Sep-12 22:56N 34°37' E 135°26'0 0.0
2017-Sep-12 22:26N 34°37' E 135°26'0 0.0
2017-Sep-12 21:57N 34°37' E 135°26'0 0.0
2017-Sep-12 21:20N 34°37' E 135°26'0 0.3
2017-Sep-12 21:00N 34°37' E 135°26'611.8
2017-Sep-12 20:30N 34°35' E 135°19'1019.3
2017-Sep-12 20:00N 34°34' E 135°07'918.8
2017-Sep-12 19:30N 34°36' E 134°56'4 0.1
2017-Sep-11 14:50N 34°35' E 134°52'620.0
2017-Sep-11 14:30N 34°38' E 134°59'918.5
2017-Sep-11 14:00N 34°36' E 135°10'918.0
2017-Sep-11 13:30N 34°37' E 135°21'4 8.2
2017-Sep-11 13:00N 34°37' E 135°26'0 0.0
2017-Sep-11 12:28N 34°37' E 135°26'0 0.0
2017-Sep-11 11:52N 34°37' E 135°26'0 0.0
2017-Sep-11 11:22N 34°37' E 135°26'0 0.0
2017-Sep-11 10:58N 34°37' E 135°26'0 0.0
2017-Sep-11 10:28N 34°37' E 135°26'0 0.0
2017-Sep-11 09:52N 34°37' E 135°26'0 0.0
2017-Sep-11 09:28N 34°37' E 135°26'0 0.0
2017-Sep-11 08:52N 34°37' E 135°26'0 0.0
2017-Sep-11 08:28N 34°37' E 135°26'0 0.0
2017-Sep-11 07:58N 34°37' E 135°26'0 0.0
2017-Sep-11 07:04N 34°37' E 135°26'0 0.1
2017-Sep-11 06:58N 34°37' E 135°26'0 0.0
2017-Sep-11 06:28N 34°37' E 135°26'0 0.0
2017-Sep-11 05:58N 34°37' E 135°26'0 0.0
2017-Sep-11 05:28N 34°37' E 135°26'0 0.0
2017-Sep-11 04:52N 34°37' E 135°26'0 0.0
2017-Sep-11 04:22N 34°37' E 135°26'0 0.0
2017-Sep-11 03:46N 34°37' E 135°26'0 0.0
2017-Sep-11 03:28N 34°37' E 135°26'0 0.0
2017-Sep-11 02:58N 34°37' E 135°26'  

Dump ship's entire track history